createdAt,value
2019-05-29T00:00:34.336Z,2.47
2019-05-29T00:03:03.117Z,2.40
2019-05-29T00:05:31.799Z,2.33
2019-05-29T00:08:00.497Z,2.30
2019-05-29T00:10:29.681Z,2.00
2019-05-29T00:12:58.720Z,2.37
2019-05-29T00:15:27.411Z,2.60
2019-05-29T00:17:56.111Z,2.50
2019-05-29T00:20:24.802Z,3.33
2019-05-29T00:22:53.411Z,2.60
2019-05-29T00:25:22.342Z,2.10
2019-05-29T00:27:51.026Z,4.60
2019-05-29T00:30:19.714Z,2.47
2019-05-29T00:32:48.429Z,2.07
2019-05-29T00:35:17.311Z,2.37
2019-05-29T00:37:46.061Z,2.70
2019-05-29T00:40:15.171Z,2.57
2019-05-29T00:42:44.132Z,2.23
2019-05-29T00:45:13.470Z,2.43
2019-05-29T00:47:42.230Z,2.73
2019-05-29T00:50:12.268Z,2.20
2019-05-29T00:52:41.131Z,2.20
2019-05-29T00:55:10.518Z,2.50
2019-05-29T00:57:39.189Z,2.47
2019-05-29T01:00:09.038Z,2.67
2019-05-29T01:02:37.803Z,2.57
2019-05-29T01:05:07.590Z,2.60
2019-05-29T01:07:36.261Z,2.43
2019-05-29T01:10:07.021Z,2.57
2019-05-29T01:12:35.991Z,2.70
2019-05-29T01:15:06.470Z,2.40
2019-05-29T01:17:35.104Z,2.53
2019-05-29T01:20:05.010Z,3.43
2019-05-29T01:22:33.690Z,2.70
2019-05-29T01:25:02.414Z,2.90
2019-05-29T01:27:31.096Z,4.37
2019-05-29T01:29:59.790Z,2.40
2019-05-29T01:32:28.506Z,2.60
2019-05-29T01:34:57.190Z,2.77
2019-05-29T01:37:26.475Z,2.67
2019-05-29T01:39:55.329Z,2.43
2019-05-29T01:42:24.015Z,2.47
2019-05-29T01:45:06.680Z,2.50
2019-05-29T01:47:23.969Z,2.30
2019-05-29T01:49:52.737Z,2.60
2019-05-29T01:52:21.865Z,2.47
2019-05-29T01:54:50.670Z,2.70
2019-05-29T01:57:19.722Z,2.50
2019-05-29T01:59:48.402Z,2.50
2019-05-29T02:02:17.839Z,2.67
2019-05-29T02:04:46.765Z,2.43
2019-05-29T02:07:15.820Z,2.57
2019-05-29T02:09:44.674Z,2.80
2019-05-29T02:12:13.277Z,4.50
2019-05-29T02:14:41.975Z,2.90
2019-05-29T02:17:11.036Z,2.43
2019-05-29T02:19:39.770Z,2.70
2019-05-29T02:22:08.453Z,2.90
2019-05-29T02:24:37.284Z,2.93
2019-05-29T02:27:05.968Z,3.60
2019-05-29T02:29:34.678Z,2.60
2019-05-29T02:32:03.390Z,3.07
2019-05-29T02:34:32.203Z,3.07
2019-05-29T02:37:00.864Z,2.80
2019-05-29T02:39:29.689Z,2.70
2019-05-29T02:41:58.380Z,2.90
2019-05-29T02:44:27.523Z,3.07
2019-05-29T02:46:56.562Z,3.27
2019-05-29T02:49:25.731Z,2.87
2019-05-29T02:51:54.645Z,2.93
2019-05-29T02:54:24.916Z,3.03
2019-05-29T02:56:53.966Z,3.60
2019-05-29T02:59:23.480Z,4.80
2019-05-29T03:01:52.790Z,3.40
2019-05-29T03:04:21.791Z,2.93
2019-05-29T03:06:50.482Z,3.43
2019-05-29T03:09:19.181Z,3.33
2019-05-29T03:11:48.164Z,3.17
2019-05-29T03:14:16.864Z,2.80
2019-05-29T03:16:45.578Z,3.93
2019-05-29T03:19:14.841Z,3.20
2019-05-29T03:21:43.663Z,3.20
2019-05-29T03:24:12.399Z,2.93
2019-05-29T03:26:41.262Z,3.57
2019-05-29T03:29:09.934Z,3.07
2019-05-29T03:31:46.595Z,3.80
2019-05-29T03:34:08.978Z,3.63
2019-05-29T03:36:43.932Z,3.77
2019-05-29T03:39:08.550Z,3.70
2019-05-29T03:41:38.759Z,4.07
2019-05-29T03:44:10.280Z,3.80
2019-05-29T03:46:44.653Z,4.17
2019-05-29T03:49:08.928Z,4.23
2019-05-29T03:51:39.023Z,3.80
2019-05-29T03:54:07.813Z,3.77
2019-05-29T03:56:36.533Z,3.40
2019-05-29T03:59:05.214Z,3.60
2019-05-29T04:01:35.583Z,3.73
2019-05-29T04:04:04.326Z,3.70
2019-05-29T04:06:33.364Z,3.57
2019-05-29T04:09:02.479Z,3.17
2019-05-29T04:11:31.475Z,3.03
2019-05-29T04:14:00.250Z,2.40
2019-05-29T04:16:52.779Z,2.70
2019-05-29T04:19:03.322Z,3.00
2019-05-29T04:21:34.065Z,3.23
2019-05-29T04:24:06.115Z,3.10
2019-05-29T04:26:37.995Z,2.97
2019-05-29T04:29:06.630Z,2.80
2019-05-29T04:31:36.579Z,2.67
2019-05-29T04:34:05.631Z,2.80
2019-05-29T04:36:34.911Z,3.00
2019-05-29T04:39:06.457Z,2.93
2019-05-29T04:41:36.857Z,2.93
2019-05-29T04:44:05.779Z,3.47
2019-05-29T04:46:36.442Z,3.50
2019-05-29T04:49:05.395Z,3.80
2019-05-29T04:51:35.425Z,4.10
2019-05-29T04:54:04.323Z,3.00
2019-05-29T04:56:33.098Z,3.30
2019-05-29T04:59:01.783Z,2.97
2019-05-29T05:01:30.882Z,3.17
2019-05-29T05:03:59.705Z,3.57
2019-05-29T05:06:29.098Z,3.90
2019-05-29T05:08:57.918Z,3.90
2019-05-29T05:11:26.606Z,4.37
2019-05-29T05:13:55.518Z,3.63
2019-05-29T05:16:24.221Z,4.67
2019-05-29T05:18:52.901Z,3.53
2019-05-29T05:21:21.587Z,3.30
2019-05-29T05:23:50.297Z,3.87
2019-05-29T05:26:18.974Z,3.73
2019-05-29T05:28:48.215Z,3.30
2019-05-29T05:31:16.986Z,3.60
2019-05-29T05:33:45.668Z,3.80
2019-05-29T05:36:14.533Z,3.70
2019-05-29T05:38:43.248Z,5.67
2019-05-29T05:41:11.944Z,7.50
2019-05-29T05:43:41.362Z,4.17
2019-05-29T05:46:11.140Z,4.07
2019-05-29T05:48:39.903Z,4.00
2019-05-29T05:51:08.586Z,4.53
2019-05-29T05:53:37.542Z,4.80
2019-05-29T05:56:06.294Z,4.07
2019-05-29T05:58:35.717Z,4.97
2019-05-29T06:01:04.506Z,4.13
2019-05-29T06:03:33.954Z,3.70
2019-05-29T06:06:02.666Z,4.20
2019-05-29T06:08:32.002Z,6.23
2019-05-29T06:11:00.765Z,4.40
2019-05-29T06:13:29.448Z,4.20
2019-05-29T06:15:58.186Z,4.20
2019-05-29T06:18:26.855Z,4.47
2019-05-29T06:20:55.537Z,4.27
2019-05-29T06:23:24.420Z,3.90
2019-05-29T06:25:53.104Z,4.63
2019-05-29T06:28:21.810Z,4.40
2019-05-29T06:30:50.722Z,4.30
2019-05-29T06:33:19.405Z,4.73
2019-05-29T06:35:48.103Z,4.87
2019-05-29T06:38:16.814Z,4.67
2019-05-29T06:40:45.698Z,4.57
2019-05-29T06:43:22.152Z,5.37
2019-05-29T06:45:50.828Z,5.03
2019-05-29T06:48:41.677Z,4.90
2019-05-29T06:50:58.088Z,4.43
2019-05-29T06:53:27.388Z,4.30
2019-05-29T06:55:57.614Z,4.23
2019-05-29T06:58:26.537Z,4.57
2019-05-29T07:00:55.276Z,4.70
2019-05-29T07:03:24.885Z,4.47
2019-05-29T07:05:53.578Z,4.20
2019-05-29T07:08:37.528Z,4.27
2019-05-29T07:10:52.613Z,4.20
2019-05-29T07:13:21.299Z,4.10
2019-05-29T07:15:49.989Z,4.40
2019-05-29T07:18:18.697Z,4.57
2019-05-29T07:20:47.382Z,4.53
2019-05-29T07:23:16.063Z,3.97
2019-05-29T07:25:45.715Z,4.37
2019-05-29T07:28:14.555Z,6.20
2019-05-29T07:30:49.656Z,4.40
2019-05-29T07:33:13.607Z,4.90
2019-05-29T07:35:43.303Z,4.93
2019-05-29T07:38:12.277Z,4.63
2019-05-29T07:40:42.675Z,4.77
2019-05-29T07:43:11.718Z,4.73
2019-05-29T07:45:40.697Z,4.57
2019-05-29T07:48:10.543Z,4.83
2019-05-29T07:50:40.059Z,4.90
2019-05-29T07:53:08.922Z,5.20
2019-05-29T07:55:38.458Z,6.20
2019-05-29T07:58:07.241Z,5.40
2019-05-29T08:00:58.753Z,5.10
2019-05-29T08:03:07.160Z,5.67
2019-05-29T08:05:35.846Z,5.20
2019-05-29T08:08:04.625Z,4.77
2019-05-29T08:10:33.368Z,5.80
2019-05-29T08:13:02.055Z,5.63
2019-05-29T08:15:30.735Z,5.43
2019-05-29T08:17:59.527Z,5.53
2019-05-29T08:20:28.210Z,5.60
2019-05-29T08:22:56.894Z,5.87
2019-05-29T08:25:25.621Z,6.23
2019-05-29T08:27:54.227Z,5.50
2019-05-29T08:30:23.011Z,6.13
2019-05-29T08:32:51.725Z,6.17
2019-05-29T08:35:20.538Z,7.80
2019-05-29T08:37:49.253Z,6.80
2019-05-29T08:40:18.230Z,6.80
2019-05-29T08:42:47.398Z,7.27
2019-05-29T08:45:17.808Z,6.90
2019-05-29T08:47:47.633Z,6.87
2019-05-29T08:50:18.936Z,7.00
2019-05-29T08:52:48.094Z,7.10
2019-05-29T08:55:16.940Z,6.90
2019-05-29T08:57:46.347Z,6.97
2019-05-29T09:00:16.441Z,6.73
2019-05-29T09:02:45.084Z,7.07
2019-05-29T09:05:13.872Z,6.93
2019-05-29T09:07:43.425Z,7.03
2019-05-29T09:10:13.657Z,6.53
2019-05-29T09:12:46.018Z,6.30
2019-05-29T09:15:12.632Z,6.73
2019-05-29T09:17:41.411Z,6.90
2019-05-29T09:20:26.204Z,7.77
2019-05-29T09:22:40.925Z,7.90
2019-05-29T09:25:09.582Z,7.73
2019-05-29T09:27:38.186Z,6.63
2019-05-29T09:30:07.271Z,6.83
2019-05-29T09:32:49.407Z,6.80
2019-05-29T09:35:07.305Z,7.23
2019-05-29T09:37:35.994Z,7.00
2019-05-29T09:40:07.831Z,7.00
2019-05-29T09:42:36.514Z,7.07
2019-05-29T09:45:06.306Z,6.63
2019-05-29T09:47:35.019Z,6.97
2019-05-29T09:50:06.674Z,8.20
2019-05-29T09:52:35.392Z,7.50
2019-05-29T09:55:07.535Z,6.93
2019-05-29T09:57:36.478Z,7.43
2019-05-29T10:00:10.426Z,7.57
2019-05-29T10:02:39.151Z,7.03
2019-05-29T10:05:08.135Z,7.47
2019-05-29T10:07:37.511Z,7.23
2019-05-29T10:10:11.055Z,7.67
2019-05-29T10:12:39.826Z,7.80
2019-05-29T10:15:10.534Z,7.73
2019-05-29T10:17:39.239Z,8.40
2019-05-29T10:20:11.876Z,8.47
2019-05-29T10:22:40.554Z,8.20
2019-05-29T10:25:10.144Z,7.73
2019-05-29T10:27:38.826Z,8.60
2019-05-29T10:30:08.109Z,8.57
2019-05-29T10:32:36.827Z,8.17
2019-05-29T10:35:05.702Z,7.60
2019-05-29T10:37:34.663Z,7.83
2019-05-29T10:40:05.387Z,9.57
2019-05-29T10:42:34.074Z,7.87
2019-05-29T10:45:02.958Z,8.20
2019-05-29T10:47:31.674Z,7.57
2019-05-29T10:50:00.358Z,8.50
2019-05-29T10:52:29.048Z,7.87
2019-05-29T10:54:57.766Z,8.23
2019-05-29T10:57:26.453Z,7.80
2019-05-29T10:59:55.147Z,7.83
2019-05-29T11:02:23.846Z,7.60
2019-05-29T11:04:56.351Z,7.73
2019-05-29T11:07:22.858Z,6.83
2019-05-29T11:09:52.159Z,6.70
2019-05-29T11:12:20.966Z,7.10
2019-05-29T11:14:50.711Z,5.50
2019-05-29T11:17:19.746Z,6.03
2019-05-29T11:19:49.240Z,6.77
2019-05-29T11:22:26.315Z,6.03
2019-05-29T11:24:49.946Z,5.40
2019-05-29T11:27:18.905Z,4.57
2019-05-29T11:29:48.706Z,4.70
2019-05-29T11:32:17.621Z,3.77
2019-05-29T11:34:46.295Z,4.00
2019-05-29T11:37:14.974Z,4.37
2019-05-29T11:39:43.809Z,3.13
2019-05-29T11:42:26.214Z,3.93
2019-05-29T11:44:42.836Z,3.70
2019-05-29T11:47:11.730Z,4.20
2019-05-29T11:49:40.423Z,4.20
2019-05-29T11:52:23.824Z,3.40
2019-05-29T11:54:39.459Z,3.40
2019-05-29T11:57:08.069Z,3.27
2019-05-29T11:59:36.750Z,3.63
2019-05-29T12:02:05.575Z,3.00
2019-05-29T12:04:34.253Z,3.00
2019-05-29T12:07:02.931Z,2.90
2019-05-29T12:09:33.618Z,2.60
2019-05-29T12:12:02.190Z,3.00
2019-05-29T12:14:30.951Z,4.87
2019-05-29T12:17:00.477Z,4.87
2019-05-29T12:19:29.408Z,6.07
2019-05-29T12:21:58.396Z,6.60
2019-05-29T12:24:27.668Z,6.63
2019-05-29T12:26:56.457Z,7.33
2019-05-29T12:29:25.134Z,8.27
2019-05-29T12:31:54.921Z,8.17
2019-05-29T12:34:23.734Z,8.00
2019-05-29T12:36:53.304Z,8.20
2019-05-29T12:39:22.370Z,7.70
2019-05-29T12:41:51.097Z,7.30
2019-05-29T12:44:19.774Z,7.40
2019-05-29T12:46:48.487Z,6.83
2019-05-29T12:49:17.165Z,6.80
2019-05-29T12:51:45.841Z,4.77
2019-05-29T12:54:14.483Z,4.60
2019-05-29T12:56:43.176Z,4.90
2019-05-29T12:59:11.864Z,4.80
2019-05-29T13:01:40.573Z,5.03
2019-05-29T13:04:09.576Z,4.87
2019-05-29T13:06:38.258Z,4.30
2019-05-29T13:09:08.866Z,4.10
2019-05-29T13:11:37.552Z,3.60
2019-05-29T13:14:06.337Z,3.90
2019-05-29T13:16:35.043Z,3.63
2019-05-29T13:19:05.216Z,3.20
2019-05-29T13:21:34.031Z,3.60
2019-05-29T13:24:04.028Z,4.17
2019-05-29T13:26:33.144Z,4.00
2019-05-29T13:29:01.835Z,4.03
2019-05-29T13:31:30.564Z,3.97
2019-05-29T13:33:59.955Z,4.30
2019-05-29T13:36:28.636Z,4.03
2019-05-29T13:38:58.026Z,4.77
2019-05-29T13:41:26.855Z,4.37
2019-05-29T13:43:56.384Z,5.37
2019-05-29T13:46:25.248Z,4.90
2019-05-29T13:48:53.926Z,4.70
2019-05-29T13:51:22.615Z,5.40
2019-05-29T13:54:02.787Z,4.40
2019-05-29T13:56:24.360Z,4.80
2019-05-29T13:58:52.358Z,4.40
2019-05-29T14:01:21.075Z,4.17
2019-05-29T14:03:50.732Z,5.00
2019-05-29T14:06:19.578Z,4.30
2019-05-29T14:08:48.290Z,4.60
2019-05-29T14:11:17.014Z,5.13
2019-05-29T14:13:45.784Z,5.20
2019-05-29T14:16:14.517Z,4.77
2019-05-29T14:18:43.343Z,5.40
2019-05-29T14:21:13.354Z,5.63
2019-05-29T14:23:42.298Z,5.63
2019-05-29T14:26:11.129Z,5.03
2019-05-29T14:28:39.966Z,4.03
2019-05-29T14:31:09.936Z,4.07
2019-05-29T14:33:38.775Z,4.07
2019-05-29T14:36:07.793Z,5.13
2019-05-29T14:38:36.778Z,6.47
2019-05-29T14:41:05.760Z,6.60
2019-05-29T14:43:34.430Z,6.70
2019-05-29T14:46:03.969Z,7.43
2019-05-29T14:48:32.722Z,6.87
2019-05-29T14:51:03.168Z,6.77
2019-05-29T14:53:31.747Z,6.40
2019-05-29T14:56:00.516Z,5.57
2019-05-29T14:58:29.155Z,4.63
2019-05-29T15:00:58.032Z,3.87
2019-05-29T15:03:26.714Z,3.60
2019-05-29T15:05:55.414Z,3.87
2019-05-29T15:08:24.201Z,3.97
2019-05-29T15:10:52.891Z,3.67
2019-05-29T15:13:21.570Z,4.00
2019-05-29T15:15:50.493Z,4.00
2019-05-29T15:18:19.425Z,4.17
2019-05-29T15:20:48.178Z,4.50
2019-05-29T15:23:16.907Z,3.57
2019-05-29T15:25:45.582Z,4.90
2019-05-29T15:28:16.009Z,4.90
2019-05-29T15:30:45.078Z,4.33
2019-05-29T15:33:14.926Z,4.40
2019-05-29T15:35:43.730Z,5.00
2019-05-29T15:38:12.820Z,3.00
2019-05-29T15:40:41.659Z,2.97
2019-05-29T15:43:10.814Z,3.27
2019-05-29T15:45:39.753Z,2.87
2019-05-29T15:48:08.965Z,3.53
2019-05-29T15:50:37.665Z,3.27
2019-05-29T15:53:07.117Z,4.90
2019-05-29T15:55:35.914Z,2.97
2019-05-29T15:58:04.787Z,2.80
2019-05-29T16:00:33.649Z,2.73
2019-05-29T16:03:02.406Z,2.00
2019-05-29T16:05:31.085Z,2.50
2019-05-29T16:07:59.734Z,2.10
2019-05-29T16:10:28.413Z,1.80
2019-05-29T16:12:57.211Z,2.00
2019-05-29T16:15:25.878Z,2.03
2019-05-29T16:17:54.502Z,2.57
2019-05-29T16:20:23.559Z,2.10
2019-05-29T16:22:52.889Z,2.37
2019-05-29T16:25:38.701Z,2.40
2019-05-29T16:27:52.173Z,2.07
2019-05-29T16:30:21.901Z,2.23
2019-05-29T16:32:50.963Z,2.10
2019-05-29T16:35:24.122Z,2.60
2019-05-29T16:37:53.040Z,2.77
2019-05-29T16:40:22.250Z,2.60
2019-05-29T16:42:51.202Z,2.60
2019-05-29T16:45:22.343Z,3.33
2019-05-29T16:47:51.271Z,3.67
2019-05-29T16:50:21.221Z,3.73
2019-05-29T16:52:50.264Z,3.97
2019-05-29T16:55:19.433Z,3.80
2019-05-29T16:57:48.212Z,3.80
2019-05-29T17:00:17.821Z,6.03
2019-05-29T17:02:46.442Z,4.23
2019-05-29T17:05:16.000Z,4.30
2019-05-29T17:07:44.781Z,4.53
2019-05-29T17:10:16.272Z,4.57
2019-05-29T17:12:44.954Z,4.90
2019-05-29T17:15:15.599Z,5.43
2019-05-29T17:17:45.630Z,5.63
2019-05-29T17:20:14.827Z,5.30
2019-05-29T17:22:43.601Z,5.50
2019-05-29T17:25:12.827Z,5.93
2019-05-29T17:27:41.533Z,5.87
2019-05-29T17:30:10.735Z,5.50
2019-05-29T17:32:39.418Z,6.80
2019-05-29T17:35:08.692Z,6.10
2019-05-29T17:37:37.751Z,5.97
2019-05-29T17:40:07.525Z,6.20
2019-05-29T17:42:36.227Z,6.10
2019-05-29T17:45:07.753Z,4.97
2019-05-29T17:47:36.618Z,5.90
2019-05-29T17:50:07.531Z,5.27
2019-05-29T17:52:36.431Z,5.17
2019-05-29T17:55:06.864Z,5.20
2019-05-29T17:57:35.594Z,5.33
2019-05-29T18:00:07.715Z,5.57
2019-05-29T18:02:50.788Z,5.60
2019-05-29T18:05:07.285Z,5.53
2019-05-29T18:07:36.637Z,5.93
2019-05-29T18:10:07.381Z,6.30
2019-05-29T18:12:36.128Z,6.27
2019-05-29T18:15:07.754Z,6.70
2019-05-29T18:17:36.436Z,6.03
2019-05-29T18:20:06.817Z,6.50
2019-05-29T18:22:35.500Z,6.40
2019-05-29T18:25:07.640Z,6.03
2019-05-29T18:27:36.346Z,6.60
2019-05-29T18:30:06.901Z,7.10
2019-05-29T18:32:37.095Z,7.17
2019-05-29T18:35:07.709Z,6.90
2019-05-29T18:37:36.507Z,6.37
2019-05-29T18:40:11.447Z,6.40
2019-05-29T18:42:37.762Z,6.87
2019-05-29T18:45:19.633Z,6.63
2019-05-29T18:47:38.318Z,6.30
2019-05-29T18:50:11.876Z,6.67
2019-05-29T18:52:40.505Z,7.33
2019-05-29T18:55:09.974Z,6.90
2019-05-29T18:57:38.681Z,6.37
2019-05-29T19:00:09.443Z,6.17
2019-05-29T19:02:38.132Z,6.20
2019-05-29T19:05:07.342Z,5.60
2019-05-29T19:07:36.034Z,6.63
2019-05-29T19:10:07.399Z,6.30
2019-05-29T19:12:36.406Z,6.70
2019-05-29T19:15:09.770Z,6.73
2019-05-29T19:17:38.791Z,7.60
2019-05-29T19:20:08.604Z,7.37
2019-05-29T19:22:37.291Z,8.10
2019-05-29T19:25:06.679Z,7.50
2019-05-29T19:27:41.683Z,8.10
2019-05-29T19:30:10.687Z,8.20
2019-05-29T19:32:39.406Z,8.33
2019-05-29T19:35:08.899Z,8.40
2019-05-29T19:37:37.946Z,9.10
2019-05-29T19:40:08.560Z,8.23
2019-05-29T19:42:37.244Z,8.67
2019-05-29T19:45:10.638Z,8.27
2019-05-29T19:47:39.346Z,8.60
2019-05-29T19:50:11.448Z,9.10
2019-05-29T19:52:39.786Z,9.47
2019-05-29T19:55:08.743Z,9.70
2019-05-29T19:57:52.466Z,8.93
2019-05-29T20:00:10.096Z,8.93
2019-05-29T20:02:39.673Z,9.47
2019-05-29T20:05:08.862Z,10.13
2019-05-29T20:07:37.711Z,9.70
2019-05-29T20:10:08.129Z,10.13
2019-05-29T20:12:38.122Z,9.47
2019-05-29T20:15:07.595Z,9.47
2019-05-29T20:17:36.328Z,10.17
2019-05-29T20:20:07.290Z,10.77
2019-05-29T20:22:36.918Z,10.87
2019-05-29T20:25:07.421Z,10.47
2019-05-29T20:27:36.359Z,10.63
2019-05-29T20:30:07.488Z,10.87
2019-05-29T20:32:36.811Z,11.40
2019-05-29T20:35:06.381Z,11.63
2019-05-29T20:37:36.285Z,9.80
2019-05-29T20:40:07.071Z,8.80
2019-05-29T20:42:36.356Z,8.03
2019-05-29T20:45:08.672Z,7.90
2019-05-29T20:47:38.051Z,7.63
2019-05-29T20:50:09.014Z,8.00
2019-05-29T20:52:39.280Z,8.07
2019-05-29T20:55:09.209Z,7.17
2019-05-29T20:57:38.097Z,8.00
2019-05-29T21:00:09.350Z,8.70
2019-05-29T21:02:38.219Z,9.30
2019-05-29T21:05:07.455Z,9.03
2019-05-29T21:07:36.640Z,8.67
2019-05-29T21:10:06.393Z,8.53
2019-05-29T21:12:35.251Z,9.30
2019-05-29T21:15:05.244Z,9.23
2019-05-29T21:17:34.302Z,9.20
2019-05-29T21:20:04.953Z,9.77
2019-05-29T21:22:34.465Z,10.53
2019-05-29T21:25:09.195Z,9.80
2019-05-29T21:27:35.122Z,11.10
2019-05-29T21:30:06.830Z,9.27
2019-05-29T21:32:35.754Z,10.47
2019-05-29T21:35:06.430Z,10.37
2019-05-29T21:37:36.186Z,11.70
2019-05-29T21:40:06.478Z,11.30
2019-05-29T21:42:36.575Z,12.20
2019-05-29T21:45:08.655Z,12.73
2019-05-29T21:47:37.370Z,12.50
2019-05-29T21:50:07.474Z,12.50
2019-05-29T21:52:37.439Z,11.40
2019-05-29T21:55:07.603Z,11.53
2019-05-29T21:57:37.597Z,11.03
2019-05-29T22:00:11.854Z,11.10
2019-05-29T22:02:40.642Z,11.13
2019-05-29T22:05:09.718Z,10.97
2019-05-29T22:07:38.619Z,10.73
2019-05-29T22:10:08.293Z,11.30
2019-05-29T22:12:36.901Z,11.77
2019-05-29T22:15:07.294Z,10.97
2019-05-29T22:17:36.369Z,11.60
2019-05-29T22:20:07.896Z,11.47
2019-05-29T22:22:36.659Z,10.93
2019-05-29T22:25:07.081Z,10.97
2019-05-29T22:27:36.708Z,11.67
2019-05-29T22:30:07.601Z,11.07
2019-05-29T22:32:36.305Z,10.37
2019-05-29T22:35:08.147Z,10.40
2019-05-29T22:37:36.835Z,10.93
2019-05-29T22:40:08.589Z,11.57
2019-05-29T22:42:37.197Z,10.97
2019-05-29T22:45:06.592Z,10.43
2019-05-29T22:47:35.303Z,11.47
2019-05-29T22:50:08.454Z,11.13
2019-05-29T22:52:37.179Z,10.07
2019-05-29T22:55:06.928Z,10.33
2019-05-29T22:57:35.705Z,10.60
2019-05-29T23:00:06.462Z,11.00
2019-05-29T23:02:35.182Z,11.57
2019-05-29T23:05:06.270Z,11.63
2019-05-29T23:07:34.950Z,11.77
2019-05-29T23:10:05.838Z,11.10
2019-05-29T23:12:34.526Z,11.57
2019-05-29T23:15:03.606Z,12.70
2019-05-29T23:17:32.431Z,14.13
2019-05-29T23:20:01.112Z,14.63
2019-05-29T23:22:29.802Z,20.40
2019-05-29T23:24:59.238Z,16.40
2019-05-29T23:27:28.038Z,15.67
2019-05-29T23:29:56.860Z,15.67
2019-05-29T23:32:25.642Z,17.37
2019-05-29T23:34:55.059Z,17.60
2019-05-29T23:37:23.874Z,18.53
2019-05-29T23:39:53.149Z,17.43
2019-05-29T23:42:21.954Z,21.83
2019-05-29T23:44:52.058Z,27.77
2019-05-29T23:47:21.315Z,19.30
2019-05-29T23:49:49.933Z,16.30
2019-05-29T23:52:18.620Z,21.77
2019-05-29T23:54:47.330Z,21.77
2019-05-29T23:57:16.619Z,22.63
2019-05-29T23:59:45.314Z,24.10
